OROVILLE DAM (ORO)

Elevation: 900' · FEATHER R basin · Operator: CA Dept of Water Resources/O & M

Provisional data, subject to change.
Query executed Wednesday at 3:18:09   clock

Select a sensor type for a plot of data.
Note: Reservoir Flows are daily averages.

Earlier

Date RES ELE    STORAGE    RES CHG    TOC STO    ABV TOC    OUTFLOW    INFLOW    EVAP    FNF    PPT INC    RAIN    PPTINC4   
 FEET   AF   AF   AF   AF   CFS   CFS   CFS   CFS   INCHES   INCHES   INCHES  
07/07/2015 710.91 1339793 -8718 3538000 -2198207 4465 115 85 739 e 0.00 26.00 0.00
07/08/2015 709.86 1331432 -8361 3538000 -2206568 4605 510 81 1042 0.24 26.24 0.00
07/09/2015 708.84 1323344 -8088 3538000 -2214656 4887 830 60 1150 0.00 26.24 0.24
07/10/2015 708.02 1316865 -6479 3538000 -2221135 4595 1372 43 953 0.00 26.24 0.00
07/11/2015 707.16 1310094 -6771 3538000 -2227906 4637 955 48 932 0.00 26.24 --
07/12/2015 706.06 1301468 -8626 3538000 -2236532 5086 1102 48 701 0.00 26.24 0.00
07/13/2015 704.98 1293035 -8433 3538000 -2244965 5068 973 117 920 0.00 26.24 --
07/14/2015 703.96 1285106 -7929 3538000 -2252894 5104 1226 81 661 e 0.00 26.24 0.00
07/15/2015 703.00 1277673 -7433 3538000 -2260327 5112 1216 85 732 e 0.00 26.24 0.00
07/16/2015 701.99 1269883 -7790 3538000 -- 3687 947 99 732 e 0.00 26.24 0.00
07/17/2015 701.12 1263200 -6683 3538000 -- 4299 46 87 803 e 0.00 26.24 0.00
07/18/2015 700.29 1256845 -6355 3538000 -- 4070 976 71 803 e 0.00 26.24 0.00
07/19/2015 699.45 1250451 -6394 3538000 -- 4079 881 70 782 e 0.00 26.24 0.00
07/20/2015 698.61 1244062 -6389 3538000 -2293938 4237 1240 147 867 0.00 26.24 0.00
07/21/2015 697.79 1237848 -6214 3538000 -2300152 4415 1313 107 841 e 0.00 26.24 0.00
07/22/2015 696.80 1230375 -7473 3538000 -2307625 4576 901 92 634 e 0.00 26.24 0.00
07/23/2015 695.99 1224285 -6090 3538000 -2313715 4638 1662 94 633 e 0.00 26.24 0.00
07/24/2015 694.42 1212542 -11742 3538000 -2325458 5189 -542 75 427 e 0.00 26.24 0.00
07/25/2015 693.24 1203770 -8773 3538000 -2334230 4957 566 69 427 e 0.00 26.24 0.00
07/26/2015 692.15 1195707 -8063 3538000 -2342293 4984 951 69 427 e 0.00 26.24 0.00
07/27/2015 691.17 1188491 -7216 3538000 -2349509 5040 1417 126 427 e 0.00 26.24 0.00
07/28/2015 690.19 1181306 -7185 3538000 -- 4614 1216 112 571 0.00 26.24 0.00
07/29/2015 689.29 1174734 -6572 3538000 -2363266 4626 1475 126 556 0.00 26.24 0.00
07/30/2015 688.40 1168262 -6472 3538000 -2369738 4707 1525 118 734 0.00 26.24 0.00
07/31/2015 687.53 1161959 -6303 3538000 -2376041 4419 1292 87 593 0.00 26.24 0.00
08/01/2015 686.61 1155320 -6639 3538000 -2382680 4453 1220 77 1090 0.00 26.24 0.00
08/02/2015 685.72 1148923 -6397 3538000 -2389077 4472 1324 77 -- 0.00 26.24 0.00
08/03/2015 684.76 1142052 -6871 3538000 -2395948 4326 894 32 -- 0.00 26.24 0.00
08/04/2015 -- -- -- 3538000 -- 4179 1677 86 -- 0.00 -- 0.00
08/05/2015 -- -- -- -- -- -- -- -- -- -- -- --

Later | Latest

Warning! This data is preliminary and subject to revision.

Show ORO Map | Plot ORO Data | 1 Month ORO Data | Real-Time ORO Data | ORO Info